createdAt,value
2022-08-07T00:00:39.743Z,99.90
2022-08-07T00:03:08.687Z,99.90
2022-08-07T00:05:37.042Z,99.90
2022-08-07T00:08:10.884Z,99.90
2022-08-07T00:10:48.367Z,99.90
2022-08-07T00:13:30.835Z,99.90
2022-08-07T00:16:00.278Z,99.90
2022-08-07T00:18:28.084Z,99.90
2022-08-07T00:21:55.606Z,99.90
2022-08-07T00:23:54.697Z,99.90
2022-08-07T00:26:49.349Z,99.90
2022-08-07T00:29:16.717Z,99.90
2022-08-07T00:31:56.904Z,99.90
2022-08-07T00:34:24.071Z,99.90
2022-08-07T00:36:52.215Z,99.90
2022-08-07T00:39:26.010Z,99.90
2022-08-07T00:42:02.455Z,99.90
2022-08-07T00:44:41.512Z,99.90
2022-08-07T00:47:15.773Z,99.90
2022-08-07T00:50:20.157Z,99.90
2022-08-07T00:52:57.916Z,99.90
2022-08-07T00:55:25.570Z,99.90
2022-08-07T00:58:17.884Z,99.90
2022-08-07T01:00:53.501Z,99.90
2022-08-07T01:03:57.276Z,99.90
2022-08-07T01:06:21.951Z,99.90
2022-08-07T01:08:53.864Z,99.90
2022-08-07T01:12:24.052Z,99.90
2022-08-07T01:14:16.709Z,99.90
2022-08-07T01:16:50.933Z,99.90
2022-08-07T01:19:19.655Z,99.90
2022-08-07T01:21:47.676Z,99.90
2022-08-07T01:24:21.474Z,99.90
2022-08-07T01:26:51.653Z,99.90
2022-08-07T01:29:31.378Z,99.90
2022-08-07T01:32:00.632Z,99.90
2022-08-07T01:34:38.944Z,99.90
2022-08-07T01:37:11.886Z,99.90
2022-08-07T01:39:46.406Z,99.90
2022-08-07T01:42:38.077Z,99.90
2022-08-07T01:45:17.874Z,99.90
2022-08-07T01:48:18.926Z,99.90
2022-08-07T01:50:38.903Z,99.90
2022-08-07T01:53:09.700Z,99.90
2022-08-07T01:55:56.913Z,99.90
2022-08-07T01:58:33.239Z,99.90
2022-08-07T02:01:09.395Z,99.90
2022-08-07T02:03:50.235Z,99.90
2022-08-07T02:06:31.313Z,99.90
2022-08-07T02:09:06.970Z,99.90
2022-08-07T02:12:03.392Z,99.90
2022-08-07T02:14:40.357Z,99.90
2022-08-07T02:17:07.988Z,99.90
2022-08-07T02:20:04.629Z,99.90
2022-08-07T02:22:29.104Z,99.90
2022-08-07T02:25:07.440Z,99.90
2022-08-07T02:27:52.004Z,99.90
2022-08-07T02:30:25.981Z,99.90
2022-08-07T02:33:00.152Z,99.90
2022-08-07T02:36:28.988Z,99.90
2022-08-07T02:38:31.887Z,99.90
2022-08-07T02:41:06.023Z,99.90
2022-08-07T02:43:38.870Z,99.90
2022-08-07T02:46:13.012Z,99.90
2022-08-07T02:48:43.018Z,99.90
2022-08-07T02:51:42.890Z,99.90
2022-08-07T02:54:15.130Z,99.90
2022-08-07T02:56:49.011Z,99.90
2022-08-07T02:59:18.775Z,99.90
2022-08-07T03:01:58.080Z,99.90
2022-08-07T03:04:29.297Z,99.90
2022-08-07T03:06:56.969Z,99.90
2022-08-07T03:09:44.737Z,99.90
2022-08-07T03:12:22.019Z,99.90
2022-08-07T03:15:07.758Z,99.90
2022-08-07T03:17:52.739Z,99.90
2022-08-07T03:20:28.019Z,99.90
2022-08-07T03:22:54.892Z,99.90
2022-08-07T03:25:28.003Z,99.90
2022-08-07T03:28:38.039Z,99.90
2022-08-07T03:31:10.011Z,99.90
2022-08-07T03:33:40.200Z,99.90
2022-08-07T03:36:09.118Z,99.90
2022-08-07T03:38:43.029Z,99.90
2022-08-07T03:41:11.782Z,99.90
2022-08-07T03:43:56.951Z,99.90
2022-08-07T03:46:31.040Z,99.90
2022-08-07T03:49:04.582Z,99.90
2022-08-07T03:51:47.389Z,99.90
2022-08-07T03:54:35.191Z,99.90
2022-08-07T03:57:08.021Z,99.90
2022-08-07T03:59:46.671Z,99.90
2022-08-07T04:02:27.825Z,99.90
2022-08-07T04:05:01.069Z,99.90
2022-08-07T04:07:36.241Z,99.90
2022-08-07T04:10:15.657Z,99.90
2022-08-07T04:12:53.034Z,99.90
2022-08-07T04:15:29.012Z,99.90
2022-08-07T04:18:57.426Z,99.90
2022-08-07T04:20:54.693Z,99.90
2022-08-07T04:23:43.857Z,99.90
2022-08-07T04:26:21.863Z,99.90
2022-08-07T04:28:55.060Z,99.90
2022-08-07T04:31:38.953Z,99.90
2022-08-07T04:34:27.372Z,99.90
2022-08-07T04:37:08.143Z,99.90
2022-08-07T04:39:49.775Z,99.90
2022-08-07T04:42:23.033Z,99.90
2022-08-07T04:45:02.870Z,99.90
2022-08-07T04:48:00.428Z,99.90
2022-08-07T04:50:52.891Z,99.90
2022-08-07T04:54:01.516Z,99.90
2022-08-07T04:58:13.157Z,99.90
2022-08-07T05:00:11.121Z,99.90
2022-08-07T05:03:00.074Z,99.90
2022-08-07T05:05:53.041Z,99.90
2022-08-07T05:08:59.987Z,99.90
2022-08-07T05:11:58.442Z,99.90
2022-08-07T05:14:54.137Z,99.90
2022-08-07T05:17:52.698Z,99.90
2022-08-07T05:20:18.074Z,99.90
2022-08-07T05:22:45.542Z,99.90
2022-08-07T05:25:25.659Z,99.90
2022-08-07T05:28:20.833Z,99.90
2022-08-07T05:30:50.774Z,99.90
2022-08-07T05:33:26.082Z,99.90
2022-08-07T05:35:53.404Z,99.90
2022-08-07T05:38:59.849Z,99.90
2022-08-07T05:41:17.050Z,99.90
2022-08-07T05:44:08.317Z,99.90
2022-08-07T05:46:47.141Z,99.90
2022-08-07T05:49:18.219Z,99.90
2022-08-07T05:51:52.084Z,99.90
2022-08-07T05:54:30.810Z,99.90
2022-08-07T05:56:58.671Z,99.90
2022-08-07T05:59:25.652Z,99.90
2022-08-07T06:02:01.160Z,99.90
2022-08-07T06:04:36.113Z,99.90
2022-08-07T06:07:03.947Z,99.90
2022-08-07T06:10:04.547Z,99.90
2022-08-07T06:12:27.791Z,99.90
2022-08-07T06:15:05.890Z,99.90
2022-08-07T06:17:38.004Z,99.90
2022-08-07T06:20:12.781Z,99.90
2022-08-07T06:23:02.090Z,99.90
2022-08-07T06:25:54.363Z,99.90
2022-08-07T06:28:27.608Z,99.90
2022-08-07T06:31:02.147Z,99.90
2022-08-07T06:33:33.132Z,99.90
2022-08-07T06:36:12.917Z,99.90
2022-08-07T06:38:58.511Z,99.90
2022-08-07T06:42:02.541Z,99.90
2022-08-07T06:44:31.104Z,99.90
2022-08-07T06:47:10.068Z,99.90
2022-08-07T06:49:51.453Z,99.90
2022-08-07T06:52:35.790Z,99.90
2022-08-07T06:55:32.248Z,99.90
2022-08-07T06:58:10.161Z,99.90
2022-08-07T07:00:39.248Z,99.90
2022-08-07T07:03:17.049Z,99.90
2022-08-07T07:06:03.981Z,99.90
2022-08-07T07:08:39.641Z,99.90
2022-08-07T07:12:08.937Z,99.90
2022-08-07T07:14:08.605Z,99.90
2022-08-07T07:16:45.095Z,99.90
2022-08-07T07:19:55.895Z,99.90
2022-08-07T07:22:36.972Z,99.90
2022-08-07T07:26:31.152Z,99.90
2022-08-07T07:28:42.194Z,99.90
2022-08-07T07:31:17.377Z,99.90
2022-08-07T07:33:56.499Z,99.90
2022-08-07T07:36:32.644Z,99.90
2022-08-07T07:39:00.462Z,99.90
2022-08-07T07:41:30.942Z,99.90
2022-08-07T07:44:21.559Z,99.50
2022-08-07T07:46:55.863Z,99.90
2022-08-07T07:50:33.944Z,99.90
2022-08-07T07:52:29.406Z,99.90
2022-08-07T07:54:57.051Z,99.90
2022-08-07T07:57:51.844Z,99.90
2022-08-07T08:00:29.816Z,99.50
2022-08-07T08:04:09.986Z,99.20
2022-08-07T08:06:06.907Z,99.70
2022-08-07T08:08:45.243Z,99.50
2022-08-07T08:11:18.107Z,99.50
2022-08-07T08:14:08.255Z,98.50
2022-08-07T08:16:39.689Z,98.40
2022-08-07T08:20:16.113Z,98.20
2022-08-07T08:22:03.610Z,98.40
2022-08-07T08:24:45.507Z,99.10
2022-08-07T08:27:12.679Z,98.60
2022-08-07T08:29:58.326Z,99.50
2022-08-07T08:32:38.471Z,99.00
2022-08-07T08:35:17.217Z,99.70
2022-08-07T08:38:00.842Z,99.50
2022-08-07T08:40:47.442Z,99.50
2022-08-07T08:43:41.856Z,99.00
2022-08-07T08:46:33.863Z,99.70
2022-08-07T08:49:46.395Z,99.90
2022-08-07T08:52:22.247Z,99.90
2022-08-07T08:55:07.763Z,99.70
2022-08-07T08:57:46.856Z,99.80
2022-08-07T09:00:21.235Z,99.90
2022-08-07T09:03:07.564Z,99.70
2022-08-07T09:05:58.302Z,99.50
2022-08-07T09:08:53.405Z,99.90
2022-08-07T09:11:43.423Z,99.90
2022-08-07T09:14:29.678Z,99.90
2022-08-07T09:17:24.304Z,99.90
2022-08-07T09:20:37.142Z,99.90
2022-08-07T09:24:33.795Z,99.90
2022-08-07T09:26:37.970Z,99.90
2022-08-07T09:30:04.597Z,98.20
2022-08-07T09:32:50.534Z,98.30
2022-08-07T09:36:03.203Z,97.70
2022-08-07T09:38:17.943Z,97.40
2022-08-07T09:41:06.334Z,97.30
2022-08-07T09:44:03.462Z,97.70
2022-08-07T09:47:51.948Z,98.40
2022-08-07T09:50:01.531Z,97.10
2022-08-07T09:52:51.629Z,98.60
2022-08-07T09:55:29.632Z,99.50
2022-08-07T09:58:13.305Z,99.90
2022-08-07T10:00:46.151Z,99.90
2022-08-07T10:04:06.621Z,99.90
2022-08-07T10:06:57.764Z,99.90
2022-08-07T10:10:01.051Z,99.90
2022-08-07T10:13:15.910Z,99.90
2022-08-07T10:16:19.370Z,99.90
2022-08-07T10:19:02.338Z,99.90
2022-08-07T10:22:15.341Z,99.90
2022-08-07T10:25:04.092Z,99.90
2022-08-07T10:27:56.333Z,99.90
2022-08-07T10:30:27.156Z,99.90
2022-08-07T10:33:14.880Z,99.90
2022-08-07T10:36:29.470Z,99.90
2022-08-07T10:39:41.638Z,99.90
2022-08-07T10:42:55.415Z,99.90
2022-08-07T10:45:45.116Z,99.90
2022-08-07T10:49:02.349Z,99.90
2022-08-07T10:52:13.441Z,99.90
2022-08-07T10:55:26.815Z,99.90
2022-08-07T10:58:24.989Z,99.90
2022-08-07T11:01:35.195Z,99.90
2022-08-07T11:04:32.271Z,99.90
2022-08-07T11:07:15.092Z,99.90
2022-08-07T11:10:09.641Z,99.90
2022-08-07T11:12:49.554Z,99.90
2022-08-07T11:15:32.280Z,99.90
2022-08-07T11:18:32.348Z,99.90
2022-08-07T11:21:09.980Z,99.90
2022-08-07T11:24:10.384Z,99.90
2022-08-07T11:26:48.160Z,99.90
2022-08-07T11:29:48.330Z,99.90
2022-08-07T11:32:40.459Z,99.90
2022-08-07T11:35:27.025Z,99.90
2022-08-07T11:38:18.028Z,99.90
2022-08-07T11:41:30.987Z,99.90
2022-08-07T11:44:18.458Z,99.90
2022-08-07T11:47:11.692Z,99.90
2022-08-07T11:50:30.410Z,99.90
2022-08-07T11:53:21.848Z,99.90
2022-08-07T11:56:15.609Z,99.90
2022-08-07T11:59:22.057Z,99.90
2022-08-07T12:02:29.943Z,99.90
2022-08-07T12:05:28.513Z,99.90
2022-08-07T12:08:25.667Z,99.90
2022-08-07T12:11:21.401Z,99.90
2022-08-07T12:13:54.859Z,99.90
2022-08-07T12:16:36.180Z,99.90
2022-08-07T12:19:35.947Z,99.90
2022-08-07T12:22:56.185Z,99.90
2022-08-07T12:26:22.509Z,99.90
2022-08-07T12:29:08.411Z,99.90
2022-08-07T12:32:01.902Z,99.90
2022-08-07T12:34:40.854Z,99.90
2022-08-07T12:37:16.514Z,99.90
2022-08-07T12:39:58.342Z,99.90
2022-08-07T12:42:27.127Z,99.90
2022-08-07T12:44:55.482Z,99.90
2022-08-07T12:47:53.475Z,99.90
2022-08-07T12:50:48.861Z,99.90
2022-08-07T12:54:24.129Z,99.90
2022-08-07T12:56:41.904Z,99.90
2022-08-07T12:59:20.328Z,99.90
2022-08-07T13:02:01.578Z,99.90
2022-08-07T13:05:02.652Z,99.90
2022-08-07T13:08:18.802Z,99.90
2022-08-07T13:11:24.258Z,99.90
2022-08-07T13:14:21.927Z,99.90
2022-08-07T13:17:07.349Z,99.90
2022-08-07T13:20:00.286Z,99.90
2022-08-07T13:22:36.762Z,99.90
2022-08-07T13:25:43.287Z,99.90
2022-08-07T13:28:25.181Z,99.90
2022-08-07T13:31:13.236Z,99.90
2022-08-07T13:34:34.551Z,99.90
2022-08-07T13:37:29.987Z,99.90
2022-08-07T13:40:36.239Z,99.90
2022-08-07T13:43:13.385Z,99.90
2022-08-07T13:46:12.898Z,99.90
2022-08-07T13:48:51.994Z,99.90
2022-08-07T13:52:22.998Z,99.90
2022-08-07T13:54:22.631Z,99.90
2022-08-07T13:57:00.060Z,99.90
2022-08-07T13:59:30.713Z,99.90
2022-08-07T14:02:12.824Z,99.90
2022-08-07T14:04:50.329Z,99.90
2022-08-07T14:07:30.620Z,99.90
2022-08-07T14:10:02.722Z,99.90
2022-08-07T14:12:54.890Z,99.90
2022-08-07T14:15:34.855Z,99.90
2022-08-07T14:18:23.521Z,99.90
2022-08-07T14:22:03.358Z,99.90
2022-08-07T14:24:35.185Z,99.90
2022-08-07T14:28:11.223Z,99.90
2022-08-07T14:30:11.794Z,99.90
2022-08-07T14:32:44.703Z,99.90
2022-08-07T14:35:43.279Z,99.90
2022-08-07T14:38:24.518Z,99.90
2022-08-07T14:41:05.977Z,99.90
2022-08-07T14:43:58.029Z,99.90
2022-08-07T14:46:38.003Z,99.90
2022-08-07T14:49:57.451Z,99.90
2022-08-07T14:52:14.162Z,99.90
2022-08-07T14:54:45.103Z,99.90
2022-08-07T14:57:25.121Z,99.90
2022-08-07T15:03:16.609Z,99.90
2022-08-07T15:06:04.185Z,99.90
2022-08-07T15:11:53.434Z,99.90
2022-08-07T15:14:33.581Z,99.90
2022-08-07T15:17:32.770Z,99.90
2022-08-07T15:20:32.758Z,99.90
2022-08-07T15:23:22.600Z,99.90
2022-08-07T15:26:10.440Z,99.90
2022-08-07T15:34:31.372Z,99.90
2022-08-07T15:37:06.871Z,99.90
2022-08-07T15:39:56.547Z,99.90
2022-08-07T15:45:55.972Z,99.90
2022-08-07T15:48:36.111Z,99.90
2022-08-07T15:54:16.933Z,99.90
2022-08-07T15:56:51.491Z,99.90
2022-08-07T15:59:19.416Z,99.90
2022-08-07T16:02:01.912Z,99.90
2022-08-07T16:04:38.591Z,99.90
2022-08-07T16:08:28.529Z,99.90
2022-08-07T16:10:17.553Z,99.90
2022-08-07T16:13:17.974Z,99.90
2022-08-07T16:16:47.868Z,99.90
2022-08-07T16:19:15.406Z,99.90
2022-08-07T16:22:36.311Z,99.90
2022-08-07T16:30:06.066Z,99.90
2022-08-07T16:31:50.313Z,99.90
2022-08-07T16:34:48.328Z,99.90
2022-08-07T16:38:06.753Z,99.90
2022-08-07T16:40:36.161Z,99.90
2022-08-07T16:44:46.379Z,99.90
2022-08-07T16:47:24.625Z,99.90
2022-08-07T16:50:39.416Z,99.90
2022-08-07T16:54:02.102Z,99.90
2022-08-07T16:56:47.577Z,99.90
2022-08-07T16:59:26.072Z,99.90
2022-08-07T17:02:57.588Z,99.90
2022-08-07T17:06:02.401Z,99.90
2022-08-07T17:09:09.442Z,99.90
2022-08-07T17:12:01.429Z,99.90
2022-08-07T17:15:05.577Z,99.90
2022-08-07T17:17:49.075Z,99.90
2022-08-07T17:20:39.550Z,99.90
2022-08-07T17:23:31.932Z,99.90
2022-08-07T17:26:22.577Z,99.90
2022-08-07T17:30:14.323Z,99.90
2022-08-07T17:32:52.011Z,99.90
2022-08-07T17:35:54.616Z,99.90
2022-08-07T17:38:34.372Z,99.90
2022-08-07T17:42:05.007Z,99.90
2022-08-07T17:44:50.836Z,99.90
2022-08-07T17:47:42.309Z,99.90
2022-08-07T17:50:30.151Z,99.90
2022-08-07T17:53:59.667Z,99.90
2022-08-07T17:56:15.448Z,99.90
2022-08-07T17:59:03.614Z,99.90
2022-08-07T18:01:43.392Z,99.90
2022-08-07T18:04:57.595Z,99.90
2022-08-07T18:07:34.454Z,99.90
2022-08-07T18:10:35.411Z,99.90
2022-08-07T18:13:45.650Z,99.90
2022-08-07T18:16:35.588Z,99.90
2022-08-07T18:21:07.527Z,99.90
2022-08-07T18:23:42.727Z,99.90
2022-08-07T18:26:14.883Z,99.90
2022-08-07T18:30:05.282Z,99.90
2022-08-07T18:32:32.696Z,99.90
2022-08-07T18:35:30.740Z,99.90
2022-08-07T18:40:05.542Z,99.90
2022-08-07T18:42:13.281Z,99.90
2022-08-07T18:45:43.375Z,99.90
2022-08-07T18:48:09.589Z,99.90
2022-08-07T18:51:02.361Z,99.90
2022-08-07T18:53:39.348Z,99.90
2022-08-07T18:56:33.704Z,99.90
2022-08-07T18:59:46.821Z,99.90
2022-08-07T19:02:43.098Z,99.90
2022-08-07T19:06:03.371Z,99.90
2022-08-07T19:08:58.882Z,99.90
2022-08-07T19:12:05.213Z,99.90
2022-08-07T19:16:02.909Z,99.90
2022-08-07T19:18:34.431Z,99.90
2022-08-07T19:21:43.898Z,99.90
2022-08-07T19:24:29.991Z,99.90
2022-08-07T19:31:00.549Z,99.90
2022-08-07T19:33:10.219Z,99.90
2022-08-07T19:35:41.765Z,99.90
2022-08-07T19:38:22.709Z,99.90
2022-08-07T19:40:57.048Z,99.90
2022-08-07T19:43:50.276Z,99.90
2022-08-07T19:46:29.014Z,99.90
2022-08-07T19:49:58.192Z,99.90
2022-08-07T19:52:27.695Z,99.90
2022-08-07T19:55:04.839Z,99.90
2022-08-07T19:58:02.224Z,99.90
2022-08-07T20:00:38.874Z,99.90
2022-08-07T20:03:35.733Z,99.90
2022-08-07T20:06:28.533Z,99.90
2022-08-07T20:10:33.577Z,99.90
2022-08-07T20:12:23.041Z,99.90
2022-08-07T20:14:58.493Z,99.90
2022-08-07T20:17:27.744Z,99.90
2022-08-07T20:20:02.819Z,99.90
2022-08-07T20:22:34.353Z,99.90
2022-08-07T20:25:19.776Z,99.90
2022-08-07T20:27:57.950Z,99.90
2022-08-07T20:30:52.853Z,99.90
2022-08-07T20:33:38.612Z,99.90
2022-08-07T20:36:17.017Z,99.90
2022-08-07T20:39:00.507Z,99.90
2022-08-07T20:41:38.460Z,99.90
2022-08-07T20:44:21.413Z,99.90
2022-08-07T20:47:04.251Z,99.90
2022-08-07T20:50:01.160Z,99.90
2022-08-07T20:52:50.517Z,99.90
2022-08-07T20:55:32.031Z,99.90
2022-08-07T20:58:11.970Z,99.90
2022-08-07T21:00:58.879Z,99.90
2022-08-07T21:03:33.069Z,99.90
2022-08-07T21:06:25.961Z,99.90
2022-08-07T21:09:13.852Z,99.90
2022-08-07T21:11:50.746Z,99.90
2022-08-07T21:14:34.076Z,99.90
2022-08-07T21:18:02.637Z,99.90
2022-08-07T21:20:29.627Z,99.90
2022-08-07T21:23:09.262Z,99.90
2022-08-07T21:26:16.834Z,99.90
2022-08-07T21:29:04.205Z,99.90
2022-08-07T21:32:43.614Z,99.90
2022-08-07T21:34:59.689Z,99.90
2022-08-07T21:37:58.275Z,99.90
2022-08-07T21:41:05.790Z,99.90
2022-08-07T21:44:14.683Z,99.90
2022-08-07T21:47:17.301Z,99.90
2022-08-07T21:50:05.513Z,99.90
2022-08-07T21:53:08.606Z,99.90
2022-08-07T21:55:58.865Z,99.90
2022-08-07T21:58:59.743Z,99.90
2022-08-07T22:02:07.380Z,99.90
2022-08-07T22:04:52.650Z,99.90
2022-08-07T22:07:31.679Z,99.90
2022-08-07T22:10:18.628Z,99.90
2022-08-07T22:13:00.939Z,99.90
2022-08-07T22:16:42.549Z,99.90
2022-08-07T22:18:51.114Z,99.90
2022-08-07T22:22:02.678Z,99.90
2022-08-07T22:24:33.079Z,99.90
2022-08-07T22:28:19.792Z,99.90
2022-08-07T22:30:28.964Z,99.90
2022-08-07T22:33:04.155Z,99.90
2022-08-07T22:36:02.901Z,99.90
2022-08-07T22:38:39.388Z,99.90
2022-08-07T22:41:29.128Z,99.90
2022-08-07T22:44:12.962Z,99.90
2022-08-07T22:47:36.871Z,99.90
2022-08-07T22:50:20.786Z,99.90
2022-08-07T22:54:07.477Z,99.90
2022-08-07T22:56:28.853Z,99.90
2022-08-07T22:59:25.030Z,99.90
2022-08-07T23:02:13.931Z,99.90
2022-08-07T23:04:57.044Z,99.90
2022-08-07T23:08:24.364Z,99.90
2022-08-07T23:11:13.035Z,99.90
2022-08-07T23:14:10.585Z,99.90
2022-08-07T23:16:46.682Z,99.90
2022-08-07T23:19:48.424Z,99.90
2022-08-07T23:22:50.133Z,99.90
2022-08-07T23:25:57.942Z,99.90
2022-08-07T23:28:54.506Z,99.90
2022-08-07T23:34:20.635Z,99.90
2022-08-07T23:34:44.985Z,99.90
2022-08-07T23:38:01.384Z,99.90
2022-08-07T23:40:36.277Z,99.90
2022-08-07T23:43:16.885Z,99.90
2022-08-07T23:46:03.230Z,99.90
2022-08-07T23:49:15.436Z,99.90
2022-08-07T23:53:01.447Z,99.90
2022-08-07T23:54:52.790Z,99.90
2022-08-07T23:57:58.923Z,99.90
